LIPZ/VCE METAR and TAF weather

Enter ICAO airport designator
Station Type Date Time Source
LIPZ METAR 2019/05/19 20:20 UTC NOAA

LIPZ 192020Z 10004KT 9999 BKN043 15/13 Q1005 NOSIG


Station Type Date Time Source
LIPZ Decoded METAR 2019/05/19 20:20 UTC NOAA

Venezia / Tessera, Italy (LIPZ) 45-30N 012-20E 6M
May 19, 2019 - 04:20 PM EDT / 2019.05.19 2020 UTC
Wind: from the E (100 degrees) at 5 MPH (4 KT):0
Visibility: greater than 7 mile(s):0
Sky conditions: mostly cloudy
Temperature: 59 F (15 C)
Dew Point: 55 F (13 C)
Relative Humidity: 87%
Pressure (altimeter): 29.68 in. Hg (1005 hPa)
ob: LIPZ 192020Z 10004KT 9999 BKN043 15/13 Q1005 NOSIG
cycle: 20

Station Type Date Time Source
LIPZ TAF 2019/05/19 18:26 UTC NOAA

TAF LIPZ 191700Z 1918/2024 08012KT 9999 SCT015 BKN020
BECMG 1918/1920 VRB05KT
TEMPO 1918/1922 RA
TEMPO 1922/2006 TSRA
TEMPO 2006/2016 RA
BECMG 2006/2008 23010KT

Example: see airport list